sensor_id;sensor_type;location;lat;lon;timestamp;P1;durP1;ratioP1;P2;durP2;ratioP2
54743;SDS011;40639;53.170;6.728;2022-10-16T00:01:06;5.53;;;1.70;;
54743;SDS011;40639;53.170;6.728;2022-10-16T00:03:32;4.57;;;1.30;;
54743;SDS011;40639;53.170;6.728;2022-10-16T00:05:59;3.75;;;1.60;;
54743;SDS011;40639;53.170;6.728;2022-10-16T00:08:25;5.35;;;1.70;;
54743;SDS011;40639;53.170;6.728;2022-10-16T00:10:52;4.85;;;1.60;;
54743;SDS011;40639;53.170;6.728;2022-10-16T00:13:18;7.55;;;2.28;;
54743;SDS011;40639;53.170;6.728;2022-10-16T00:15:45;4.95;;;2.15;;
54743;SDS011;40639;53.170;6.728;2022-10-16T00:18:12;4.00;;;1.50;;
54743;SDS011;40639;53.170;6.728;2022-10-16T00:20:39;4.55;;;2.25;;
54743;SDS011;40639;53.170;6.728;2022-10-16T00:23:05;5.50;;;1.50;;
54743;SDS011;40639;53.170;6.728;2022-10-16T00:25:32;4.43;;;1.92;;
54743;SDS011;40639;53.170;6.728;2022-10-16T00:27:59;2.80;;;1.23;;
54743;SDS011;40639;53.170;6.728;2022-10-16T00:30:25;4.70;;;1.58;;
54743;SDS011;40639;53.170;6.728;2022-10-16T00:32:52;5.85;;;1.92;;
54743;SDS011;40639;53.170;6.728;2022-10-16T00:35:19;5.20;;;2.00;;
54743;SDS011;40639;53.170;6.728;2022-10-16T00:37:45;5.03;;;1.50;;
54743;SDS011;40639;53.170;6.728;2022-10-16T00:40:11;3.67;;;1.40;;
54743;SDS011;40639;53.170;6.728;2022-10-16T00:42:37;3.38;;;1.45;;
54743;SDS011;40639;53.170;6.728;2022-10-16T00:45:04;5.30;;;1.60;;
54743;SDS011;40639;53.170;6.728;2022-10-16T00:47:31;4.10;;;1.42;;
54743;SDS011;40639;53.170;6.728;2022-10-16T00:50:22;6.10;;;1.50;;
54743;SDS011;40639;53.170;6.728;2022-10-16T00:52:45;6.03;;;1.33;;
54743;SDS011;40639;53.170;6.728;2022-10-16T00:55:12;5.45;;;1.80;;
54743;SDS011;40639;53.170;6.728;2022-10-16T00:57:38;7.40;;;1.85;;
54743;SDS011;40639;53.170;6.728;2022-10-16T01:00:05;4.30;;;1.40;;
54743;SDS011;40639;53.170;6.728;2022-10-16T01:02:32;8.05;;;2.17;;
54743;SDS011;40639;53.170;6.728;2022-10-16T01:04:58;4.32;;;1.52;;
54743;SDS011;40639;53.170;6.728;2022-10-16T01:10:16;3.97;;;1.20;;
54743;SDS011;40639;53.170;6.728;2022-10-16T01:12:48;2.03;;;1.20;;
54743;SDS011;40639;53.170;6.728;2022-10-16T01:15:17;3.28;;;1.30;;
54743;SDS011;40639;53.170;6.728;2022-10-16T01:17:51;4.13;;;1.42;;
54743;SDS011;40639;53.170;6.728;2022-10-16T01:20:26;3.70;;;1.55;;
54743;SDS011;40639;53.170;6.728;2022-10-16T01:28:12;5.07;;;1.25;;
54743;SDS011;40639;53.170;6.728;2022-10-16T01:30:40;3.85;;;1.20;;
54743;SDS011;40639;53.170;6.728;2022-10-16T01:33:21;6.88;;;1.55;;
54743;SDS011;40639;53.170;6.728;2022-10-16T01:35:52;6.28;;;1.42;;
54743;SDS011;40639;53.170;6.728;2022-10-16T01:38:20;4.90;;;1.25;;
54743;SDS011;40639;53.170;6.728;2022-10-16T01:40:49;4.38;;;1.10;;
54743;SDS011;40639;53.170;6.728;2022-10-16T01:43:18;4.18;;;1.60;;
54743;SDS011;40639;53.170;6.728;2022-10-16T01:45:45;4.45;;;1.08;;
54743;SDS011;40639;53.170;6.728;2022-10-16T01:48:16;4.53;;;1.15;;
54743;SDS011;40639;53.170;6.728;2022-10-16T01:50:43;4.97;;;1.23;;
54743;SDS011;40639;53.170;6.728;2022-10-16T01:53:10;2.85;;;1.10;;
54743;SDS011;40639;53.170;6.728;2022-10-16T01:55:39;2.83;;;1.20;;
54743;SDS011;40639;53.170;6.728;2022-10-16T01:58:08;3.05;;;1.20;;
54743;SDS011;40639;53.170;6.728;2022-10-16T02:00:36;2.35;;;1.10;;
54743;SDS011;40639;53.170;6.728;2022-10-16T02:03:03;3.28;;;1.20;;
54743;SDS011;40639;53.170;6.728;2022-10-16T02:07:56;3.33;;;1.20;;
54743;SDS011;40639;53.170;6.728;2022-10-16T02:10:22;4.80;;;1.40;;
54743;SDS011;40639;53.170;6.728;2022-10-16T02:12:52;4.82;;;1.40;;
54743;SDS011;40639;53.170;6.728;2022-10-16T02:15:19;3.67;;;1.40;;
54743;SDS011;40639;53.170;6.728;2022-10-16T02:17:45;4.15;;;1.25;;
54743;SDS011;40639;53.170;6.728;2022-10-16T02:20:11;3.55;;;1.30;;
54743;SDS011;40639;53.170;6.728;2022-10-16T02:22:39;4.20;;;1.63;;
54743;SDS011;40639;53.170;6.728;2022-10-16T02:25:08;4.60;;;1.38;;
54743;SDS011;40639;53.170;6.728;2022-10-16T02:27:53;2.00;;;1.13;;
54743;SDS011;40639;53.170;6.728;2022-10-16T02:30:25;2.30;;;1.15;;
54743;SDS011;40639;53.170;6.728;2022-10-16T02:32:51;4.32;;;1.10;;
54743;SDS011;40639;53.170;6.728;2022-10-16T02:35:19;3.15;;;1.60;;
54743;SDS011;40639;53.170;6.728;2022-10-16T02:37:46;3.83;;;1.20;;
54743;SDS011;40639;53.170;6.728;2022-10-16T02:40:13;6.53;;;1.58;;
54743;SDS011;40639;53.170;6.728;2022-10-16T02:42:40;5.07;;;1.27;;
54743;SDS011;40639;53.170;6.728;2022-10-16T02:45:08;5.00;;;1.15;;
54743;SDS011;40639;53.170;6.728;2022-10-16T02:47:34;4.32;;;1.70;;
54743;SDS011;40639;53.170;6.728;2022-10-16T02:50:00;3.67;;;1.25;;
54743;SDS011;40639;53.170;6.728;2022-10-16T02:52:27;3.60;;;1.42;;
54743;SDS011;40639;53.170;6.728;2022-10-16T02:54:53;2.97;;;1.05;;
54743;SDS011;40639;53.170;6.728;2022-10-16T02:57:19;2.70;;;1.20;;
54743;SDS011;40639;53.170;6.728;2022-10-16T02:59:45;2.78;;;1.02;;
54743;SDS011;40639;53.170;6.728;2022-10-16T03:02:14;2.67;;;1.17;;
54743;SDS011;40639;53.170;6.728;2022-10-16T03:04:40;4.78;;;1.15;;
54743;SDS011;40639;53.170;6.728;2022-10-16T03:07:07;5.70;;;1.40;;
54743;SDS011;40639;53.170;6.728;2022-10-16T03:09:33;2.60;;;1.20;;
54743;SDS011;40639;53.170;6.728;2022-10-16T03:11:59;3.97;;;1.23;;
54743;SDS011;40639;53.170;6.728;2022-10-16T03:14:25;5.10;;;1.50;;
54743;SDS011;40639;53.170;6.728;2022-10-16T03:16:51;3.42;;;1.40;;
54743;SDS011;40639;53.170;6.728;2022-10-16T03:19:18;4.60;;;1.48;;
54743;SDS011;40639;53.170;6.728;2022-10-16T03:21:44;2.55;;;1.20;;
54743;SDS011;40639;53.170;6.728;2022-10-16T03:24:10;4.97;;;1.13;;
54743;SDS011;40639;53.170;6.728;2022-10-16T03:26:37;3.65;;;1.35;;
54743;SDS011;40639;53.170;6.728;2022-10-16T03:29:03;3.00;;;1.60;;
54743;SDS011;40639;53.170;6.728;2022-10-16T03:31:30;5.85;;;1.60;;
54743;SDS011;40639;53.170;6.728;2022-10-16T03:33:56;4.75;;;1.45;;
54743;SDS011;40639;53.170;6.728;2022-10-16T03:36:22;2.75;;;1.10;;
54743;SDS011;40639;53.170;6.728;2022-10-16T03:38:48;2.47;;;1.42;;
54743;SDS011;40639;53.170;6.728;2022-10-16T03:41:14;2.42;;;1.20;;
54743;SDS011;40639;53.170;6.728;2022-10-16T03:43:41;2.25;;;1.10;;
54743;SDS011;40639;53.170;6.728;2022-10-16T03:46:07;3.22;;;1.20;;
54743;SDS011;40639;53.170;6.728;2022-10-16T03:48:33;4.18;;;1.83;;
54743;SDS011;40639;53.170;6.728;2022-10-16T03:50:59;4.95;;;1.75;;
54743;SDS011;40639;53.170;6.728;2022-10-16T03:53:25;3.28;;;1.25;;
54743;SDS011;40639;53.170;6.728;2022-10-16T03:55:51;2.92;;;1.13;;
54743;SDS011;40639;53.170;6.728;2022-10-16T03:58:17;2.47;;;1.30;;
54743;SDS011;40639;53.170;6.728;2022-10-16T04:00:45;3.28;;;1.42;;
54743;SDS011;40639;53.170;6.728;2022-10-16T04:03:12;5.43;;;1.45;;
54743;SDS011;40639;53.170;6.728;2022-10-16T04:05:38;3.45;;;1.30;;
54743;SDS011;40639;53.170;6.728;2022-10-16T04:08:05;2.53;;;1.30;;
54743;SDS011;40639;53.170;6.728;2022-10-16T04:10:31;4.75;;;1.30;;
54743;SDS011;40639;53.170;6.728;2022-10-16T04:12:57;2.67;;;1.38;;
54743;SDS011;40639;53.170;6.728;2022-10-16T04:15:24;2.45;;;1.13;;
54743;SDS011;40639;53.170;6.728;2022-10-16T04:17:50;2.55;;;1.40;;
54743;SDS011;40639;53.170;6.728;2022-10-16T04:20:17;4.63;;;1.60;;
54743;SDS011;40639;53.170;6.728;2022-10-16T04:22:43;4.13;;;1.40;;
54743;SDS011;40639;53.170;6.728;2022-10-16T04:25:09;2.42;;;1.52;;
54743;SDS011;40639;53.170;6.728;2022-10-16T04:27:37;4.47;;;1.45;;
54743;SDS011;40639;53.170;6.728;2022-10-16T04:30:03;3.40;;;1.45;;
54743;SDS011;40639;53.170;6.728;2022-10-16T04:32:29;3.22;;;1.40;;
54743;SDS011;40639;53.170;6.728;2022-10-16T04:34:56;2.28;;;1.20;;
54743;SDS011;40639;53.170;6.728;2022-10-16T04:37:25;3.70;;;1.27;;
54743;SDS011;40639;53.170;6.728;2022-10-16T04:39:52;3.08;;;1.48;;
54743;SDS011;40639;53.170;6.728;2022-10-16T04:42:18;2.55;;;1.23;;
54743;SDS011;40639;53.170;6.728;2022-10-16T04:44:44;4.88;;;1.25;;
54743;SDS011;40639;53.170;6.728;2022-10-16T04:47:11;4.65;;;1.33;;
54743;SDS011;40639;53.170;6.728;2022-10-16T04:49:37;1.55;;;1.10;;
54743;SDS011;40639;53.170;6.728;2022-10-16T04:52:03;1.92;;;1.20;;
54743;SDS011;40639;53.170;6.728;2022-10-16T04:54:29;3.53;;;1.42;;
54743;SDS011;40639;53.170;6.728;2022-10-16T04:56:55;2.80;;;1.45;;
54743;SDS011;40639;53.170;6.728;2022-10-16T04:59:22;4.90;;;1.60;;
54743;SDS011;40639;53.170;6.728;2022-10-16T05:01:48;2.97;;;1.55;;
54743;SDS011;40639;53.170;6.728;2022-10-16T05:04:14;5.47;;;1.42;;
54743;SDS011;40639;53.170;6.728;2022-10-16T05:06:41;3.03;;;1.33;;
54743;SDS011;40639;53.170;6.728;2022-10-16T05:09:07;4.25;;;1.55;;
54743;SDS011;40639;53.170;6.728;2022-10-16T05:11:34;4.40;;;1.65;;
54743;SDS011;40639;53.170;6.728;2022-10-16T05:14:00;2.88;;;1.60;;
54743;SDS011;40639;53.170;6.728;2022-10-16T05:16:26;2.92;;;1.50;;
54743;SDS011;40639;53.170;6.728;2022-10-16T05:18:52;3.95;;;1.63;;
54743;SDS011;40639;53.170;6.728;2022-10-16T05:21:19;3.70;;;1.88;;
54743;SDS011;40639;53.170;6.728;2022-10-16T05:23:45;3.65;;;2.75;;
54743;SDS011;40639;53.170;6.728;2022-10-16T05:26:11;3.88;;;1.58;;
54743;SDS011;40639;53.170;6.728;2022-10-16T05:28:37;4.70;;;1.75;;
54743;SDS011;40639;53.170;6.728;2022-10-16T05:31:07;3.72;;;1.65;;
54743;SDS011;40639;53.170;6.728;2022-10-16T05:33:33;3.95;;;1.77;;
54743;SDS011;40639;53.170;6.728;2022-10-16T05:36:03;4.10;;;1.65;;
54743;SDS011;40639;53.170;6.728;2022-10-16T05:38:30;2.80;;;1.67;;
54743;SDS011;40639;53.170;6.728;2022-10-16T05:40:56;3.20;;;1.50;;
54743;SDS011;40639;53.170;6.728;2022-10-16T05:43:23;5.80;;;2.03;;
54743;SDS011;40639;53.170;6.728;2022-10-16T05:45:56;3.85;;;1.50;;
54743;SDS011;40639;53.170;6.728;2022-10-16T05:48:22;4.78;;;2.10;;
54743;SDS011;40639;53.170;6.728;2022-10-16T05:50:55;4.63;;;1.80;;
54743;SDS011;40639;53.170;6.728;2022-10-16T05:53:22;3.80;;;1.90;;
54743;SDS011;40639;53.170;6.728;2022-10-16T05:55:56;3.70;;;1.60;;
54743;SDS011;40639;53.170;6.728;2022-10-16T05:58:23;3.72;;;1.52;;
54743;SDS011;40639;53.170;6.728;2022-10-16T06:00:53;3.40;;;1.80;;
54743;SDS011;40639;53.170;6.728;2022-10-16T06:03:19;4.65;;;2.00;;
54743;SDS011;40639;53.170;6.728;2022-10-16T06:05:45;3.33;;;1.40;;
54743;SDS011;40639;53.170;6.728;2022-10-16T06:08:11;4.90;;;1.83;;
54743;SDS011;40639;53.170;6.728;2022-10-16T06:10:37;4.97;;;2.00;;
54743;SDS011;40639;53.170;6.728;2022-10-16T06:13:03;4.85;;;2.00;;
54743;SDS011;40639;53.170;6.728;2022-10-16T06:15:29;3.72;;;1.80;;
54743;SDS011;40639;53.170;6.728;2022-10-16T06:17:55;3.50;;;1.65;;
54743;SDS011;40639;53.170;6.728;2022-10-16T06:20:22;7.15;;;2.13;;
54743;SDS011;40639;53.170;6.728;2022-10-16T06:22:48;3.35;;;1.60;;
54743;SDS011;40639;53.170;6.728;2022-10-16T06:25:14;5.28;;;1.95;;
54743;SDS011;40639;53.170;6.728;2022-10-16T06:27:40;2.95;;;1.75;;
54743;SDS011;40639;53.170;6.728;2022-10-16T06:30:06;4.50;;;1.90;;
54743;SDS011;40639;53.170;6.728;2022-10-16T06:32:33;3.45;;;1.80;;
54743;SDS011;40639;53.170;6.728;2022-10-16T06:34:59;4.43;;;1.88;;
54743;SDS011;40639;53.170;6.728;2022-10-16T06:37:26;5.70;;;1.85;;
54743;SDS011;40639;53.170;6.728;2022-10-16T06:39:52;3.60;;;1.60;;
54743;SDS011;40639;53.170;6.728;2022-10-16T06:42:18;6.78;;;1.70;;
54743;SDS011;40639;53.170;6.728;2022-10-16T06:44:44;3.65;;;1.70;;
54743;SDS011;40639;53.170;6.728;2022-10-16T06:47:11;5.05;;;1.88;;
54743;SDS011;40639;53.170;6.728;2022-10-16T06:49:37;4.82;;;2.08;;
54743;SDS011;40639;53.170;6.728;2022-10-16T06:52:03;3.75;;;1.63;;
54743;SDS011;40639;53.170;6.728;2022-10-16T06:54:29;2.83;;;1.70;;
54743;SDS011;40639;53.170;6.728;2022-10-16T06:56:56;2.70;;;1.40;;
54743;SDS011;40639;53.170;6.728;2022-10-16T06:59:22;4.70;;;1.90;;
54743;SDS011;40639;53.170;6.728;2022-10-16T07:01:48;3.60;;;1.42;;
54743;SDS011;40639;53.170;6.728;2022-10-16T07:04:14;5.07;;;1.60;;
54743;SDS011;40639;53.170;6.728;2022-10-16T07:06:40;3.20;;;1.55;;
54743;SDS011;40639;53.170;6.728;2022-10-16T07:09:08;2.20;;;1.33;;
54743;SDS011;40639;53.170;6.728;2022-10-16T07:11:35;4.90;;;1.65;;
54743;SDS011;40639;53.170;6.728;2022-10-16T07:14:02;3.70;;;1.60;;
54743;SDS011;40639;53.170;6.728;2022-10-16T07:16:29;2.80;;;1.40;;
54743;SDS011;40639;53.170;6.728;2022-10-16T07:18:56;4.88;;;1.73;;
54743;SDS011;40639;53.170;6.728;2022-10-16T07:21:24;4.82;;;1.80;;
54743;SDS011;40639;53.170;6.728;2022-10-16T07:23:51;4.03;;;1.58;;
54743;SDS011;40639;53.170;6.728;2022-10-16T07:26:17;5.35;;;1.70;;
54743;SDS011;40639;53.170;6.728;2022-10-16T07:28:43;4.18;;;1.70;;
54743;SDS011;40639;53.170;6.728;2022-10-16T07:31:11;2.60;;;1.70;;
54743;SDS011;40639;53.170;6.728;2022-10-16T07:33:38;3.38;;;1.67;;
54743;SDS011;40639;53.170;6.728;2022-10-16T07:36:05;3.90;;;2.20;;
54743;SDS011;40639;53.170;6.728;2022-10-16T07:38:31;3.70;;;1.88;;
54743;SDS011;40639;53.170;6.728;2022-10-16T07:40:58;3.97;;;1.80;;
54743;SDS011;40639;53.170;6.728;2022-10-16T07:43:24;5.45;;;1.73;;
54743;SDS011;40639;53.170;6.728;2022-10-16T07:45:51;4.20;;;1.88;;
54743;SDS011;40639;53.170;6.728;2022-10-16T07:48:24;3.90;;;1.70;;
54743;SDS011;40639;53.170;6.728;2022-10-16T07:50:50;3.40;;;2.13;;
54743;SDS011;40639;53.170;6.728;2022-10-16T07:53:16;4.20;;;1.83;;
54743;SDS011;40639;53.170;6.728;2022-10-16T07:55:42;4.63;;;1.90;;
54743;SDS011;40639;53.170;6.728;2022-10-16T07:58:08;5.07;;;1.90;;
54743;SDS011;40639;53.170;6.728;2022-10-16T08:00:35;6.30;;;2.25;;
54743;SDS011;40639;53.170;6.728;2022-10-16T08:03:02;3.33;;;1.65;;
54743;SDS011;40639;53.170;6.728;2022-10-16T08:05:28;2.47;;;1.45;;
54743;SDS011;40639;53.170;6.728;2022-10-16T08:07:55;2.42;;;1.75;;
54743;SDS011;40639;53.170;6.728;2022-10-16T08:10:22;3.53;;;1.50;;
54743;SDS011;40639;53.170;6.728;2022-10-16T08:12:49;4.32;;;1.30;;
54743;SDS011;40639;53.170;6.728;2022-10-16T08:15:16;4.97;;;1.80;;
54743;SDS011;40639;53.170;6.728;2022-10-16T08:17:42;3.10;;;1.45;;
54743;SDS011;40639;53.170;6.728;2022-10-16T08:20:08;3.17;;;1.83;;
54743;SDS011;40639;53.170;6.728;2022-10-16T08:22:34;3.25;;;1.52;;
54743;SDS011;40639;53.170;6.728;2022-10-16T08:25:01;2.92;;;1.60;;
54743;SDS011;40639;53.170;6.728;2022-10-16T08:27:33;3.90;;;1.20;;
54743;SDS011;40639;53.170;6.728;2022-10-16T08:29:59;6.57;;;1.70;;
54743;SDS011;40639;53.170;6.728;2022-10-16T08:32:25;3.47;;;1.30;;
54743;SDS011;40639;53.170;6.728;2022-10-16T08:34:51;5.35;;;1.42;;
54743;SDS011;40639;53.170;6.728;2022-10-16T08:37:17;4.65;;;1.30;;
54743;SDS011;40639;53.170;6.728;2022-10-16T08:39:44;7.10;;;1.55;;
54743;SDS011;40639;53.170;6.728;2022-10-16T08:50:00;3.13;;;1.20;;
54743;SDS011;40639;53.170;6.728;2022-10-16T08:52:31;2.78;;;1.13;;
54743;SDS011;40639;53.170;6.728;2022-10-16T08:54:58;3.60;;;1.15;;
54743;SDS011;40639;53.170;6.728;2022-10-16T08:57:25;3.75;;;1.25;;
54743;SDS011;40639;53.170;6.728;2022-10-16T08:59:52;5.10;;;1.10;;
54743;SDS011;40639;53.170;6.728;2022-10-16T09:04:53;3.65;;;1.00;;
54743;SDS011;40639;53.170;6.728;2022-10-16T09:07:36;4.63;;;1.35;;
54743;SDS011;40639;53.170;6.728;2022-10-16T09:10:11;2.83;;;1.15;;
54743;SDS011;40639;53.170;6.728;2022-10-16T09:12:46;3.28;;;1.20;;
54743;SDS011;40639;53.170;6.728;2022-10-16T09:23:16;4.47;;;1.48;;
54743;SDS011;40639;53.170;6.728;2022-10-16T09:25:45;4.28;;;1.40;;
54743;SDS011;40639;53.170;6.728;2022-10-16T09:28:12;3.35;;;1.20;;
54743;SDS011;40639;53.170;6.728;2022-10-16T09:30:39;4.30;;;1.63;;
54743;SDS011;40639;53.170;6.728;2022-10-16T09:33:06;4.45;;;1.60;;
54743;SDS011;40639;53.170;6.728;2022-10-16T09:35:37;4.18;;;1.30;;
54743;SDS011;40639;53.170;6.728;2022-10-16T09:38:04;2.95;;;1.33;;
54743;SDS011;40639;53.170;6.728;2022-10-16T09:40:34;4.72;;;1.30;;
54743;SDS011;40639;53.170;6.728;2022-10-16T09:43:22;4.93;;;1.42;;
54743;SDS011;40639;53.170;6.728;2022-10-16T09:45:57;5.00;;;1.42;;
54743;SDS011;40639;53.170;6.728;2022-10-16T09:48:24;6.18;;;1.40;;
54743;SDS011;40639;53.170;6.728;2022-10-16T09:50:58;4.78;;;1.50;;
54743;SDS011;40639;53.170;6.728;2022-10-16T09:53:25;7.50;;;1.52;;
54743;SDS011;40639;53.170;6.728;2022-10-16T09:55:53;6.38;;;1.67;;
54743;SDS011;40639;53.170;6.728;2022-10-16T09:58:22;6.45;;;1.98;;
54743;SDS011;40639;53.170;6.728;2022-10-16T10:00:50;3.30;;;1.20;;
54743;SDS011;40639;53.170;6.728;2022-10-16T10:03:30;4.13;;;1.65;;
54743;SDS011;40639;53.170;6.728;2022-10-16T10:05:59;5.60;;;1.63;;
54743;SDS011;40639;53.170;6.728;2022-10-16T10:08:25;7.22;;;1.90;;
54743;SDS011;40639;53.170;6.728;2022-10-16T10:10:52;9.80;;;1.80;;
54743;SDS011;40639;53.170;6.728;2022-10-16T10:13:21;4.93;;;1.77;;
54743;SDS011;40639;53.170;6.728;2022-10-16T10:15:47;4.47;;;1.50;;
54743;SDS011;40639;53.170;6.728;2022-10-16T10:18:17;7.40;;;1.73;;
54743;SDS011;40639;53.170;6.728;2022-10-16T10:20:45;6.68;;;1.50;;
54743;SDS011;40639;53.170;6.728;2022-10-16T10:23:20;6.70;;;1.58;;
54743;SDS011;40639;53.170;6.728;2022-10-16T10:28:39;7.03;;;1.60;;
54743;SDS011;40639;53.170;6.728;2022-10-16T10:39:00;7.03;;;1.80;;
54743;SDS011;40639;53.170;6.728;2022-10-16T10:44:01;7.97;;;1.55;;
54743;SDS011;40639;53.170;6.728;2022-10-16T10:46:34;7.87;;;1.90;;
54743;SDS011;40639;53.170;6.728;2022-10-16T10:49:09;6.00;;;1.48;;
54743;SDS011;40639;53.170;6.728;2022-10-16T10:56:57;6.50;;;1.73;;
54743;SDS011;40639;53.170;6.728;2022-10-16T11:01:56;8.90;;;1.50;;
54743;SDS011;40639;53.170;6.728;2022-10-16T11:07:04;5.60;;;1.60;;
54743;SDS011;40639;53.170;6.728;2022-10-16T11:09:38;5.88;;;1.52;;
54743;SDS011;40639;53.170;6.728;2022-10-16T11:14:38;6.38;;;1.40;;
54743;SDS011;40639;53.170;6.728;2022-10-16T11:17:17;10.10;;;1.90;;
54743;SDS011;40639;53.170;6.728;2022-10-16T11:22:18;9.13;;;1.95;;
54743;SDS011;40639;53.170;6.728;2022-10-16T11:24:46;8.82;;;1.90;;
54743;SDS011;40639;53.170;6.728;2022-10-16T11:27:16;8.13;;;2.00;;
54743;SDS011;40639;53.170;6.728;2022-10-16T11:29:45;5.88;;;1.83;;
54743;SDS011;40639;53.170;6.728;2022-10-16T11:32:19;7.15;;;2.00;;
54743;SDS011;40639;53.170;6.728;2022-10-16T11:35:08;6.97;;;1.73;;
54743;SDS011;40639;53.170;6.728;2022-10-16T11:37:45;5.43;;;1.50;;
54743;SDS011;40639;53.170;6.728;2022-10-16T11:42:44;10.20;;;1.52;;
54743;SDS011;40639;53.170;6.728;2022-10-16T11:47:43;8.40;;;1.88;;
54743;SDS011;40639;53.170;6.728;2022-10-16T11:50:53;7.43;;;1.88;;
54743;SDS011;40639;53.170;6.728;2022-10-16T11:55:36;5.37;;;1.73;;
54743;SDS011;40639;53.170;6.728;2022-10-16T11:58:07;7.57;;;1.88;;
54743;SDS011;40639;53.170;6.728;2022-10-16T12:03:14;7.13;;;1.50;;
54743;SDS011;40639;53.170;6.728;2022-10-16T12:08:13;6.47;;;1.65;;
54743;SDS011;40639;53.170;6.728;2022-10-16T12:10:41;7.13;;;1.98;;
54743;SDS011;40639;53.170;6.728;2022-10-16T12:15:52;5.80;;;1.60;;
54743;SDS011;40639;53.170;6.728;2022-10-16T12:18:29;8.85;;;1.77;;
54743;SDS011;40639;53.170;6.728;2022-10-16T12:20:59;5.13;;;1.30;;
54743;SDS011;40639;53.170;6.728;2022-10-16T12:23:54;5.97;;;1.58;;
54743;SDS011;40639;53.170;6.728;2022-10-16T12:26:28;6.20;;;1.75;;
54743;SDS011;40639;53.170;6.728;2022-10-16T12:28:55;6.00;;;1.35;;
54743;SDS011;40639;53.170;6.728;2022-10-16T12:31:36;4.45;;;1.65;;
54743;SDS011;40639;53.170;6.728;2022-10-16T12:34:04;5.22;;;1.60;;
54743;SDS011;40639;53.170;6.728;2022-10-16T12:36:34;5.38;;;1.50;;
54743;SDS011;40639;53.170;6.728;2022-10-16T12:39:00;4.60;;;1.40;;
54743;SDS011;40639;53.170;6.728;2022-10-16T12:41:33;5.00;;;1.58;;
54743;SDS011;40639;53.170;6.728;2022-10-16T12:44:00;6.30;;;1.50;;
54743;SDS011;40639;53.170;6.728;2022-10-16T12:49:32;9.07;;;1.73;;
54743;SDS011;40639;53.170;6.728;2022-10-16T12:51:50;6.25;;;1.40;;
54743;SDS011;40639;53.170;6.728;2022-10-16T12:54:18;5.38;;;1.40;;
54743;SDS011;40639;53.170;6.728;2022-10-16T13:07:29;5.65;;;1.55;;
54743;SDS011;40639;53.170;6.728;2022-10-16T13:10:02;8.57;;;1.70;;
54743;SDS011;40639;53.170;6.728;2022-10-16T13:12:42;7.32;;;1.77;;
54743;SDS011;40639;53.170;6.728;2022-10-16T13:15:16;6.50;;;1.55;;
54743;SDS011;40639;53.170;6.728;2022-10-16T13:17:52;6.53;;;1.52;;
54743;SDS011;40639;53.170;6.728;2022-10-16T13:23:15;5.10;;;1.35;;
54743;SDS011;40639;53.170;6.728;2022-10-16T13:28:22;5.72;;;1.50;;
54743;SDS011;40639;53.170;6.728;2022-10-16T13:30:54;6.28;;;1.50;;
54743;SDS011;40639;53.170;6.728;2022-10-16T13:33:23;7.70;;;1.60;;
54743;SDS011;40639;53.170;6.728;2022-10-16T13:35:50;7.80;;;1.90;;
54743;SDS011;40639;53.170;6.728;2022-10-16T13:38:18;5.68;;;1.40;;
54743;SDS011;40639;53.170;6.728;2022-10-16T13:40:52;7.43;;;1.95;;
54743;SDS011;40639;53.170;6.728;2022-10-16T13:43:19;6.43;;;1.88;;
54743;SDS011;40639;53.170;6.728;2022-10-16T13:46:20;8.10;;;2.05;;
54743;SDS011;40639;53.170;6.728;2022-10-16T13:48:39;5.72;;;1.50;;
54743;SDS011;40639;53.170;6.728;2022-10-16T13:51:06;9.40;;;1.67;;
54743;SDS011;40639;53.170;6.728;2022-10-16T13:53:37;6.88;;;1.42;;
54743;SDS011;40639;53.170;6.728;2022-10-16T13:56:09;7.15;;;1.75;;
54743;SDS011;40639;53.170;6.728;2022-10-16T13:58:35;6.10;;;1.23;;
54743;SDS011;40639;53.170;6.728;2022-10-16T14:01:06;6.65;;;1.63;;
54743;SDS011;40639;53.170;6.728;2022-10-16T14:03:39;3.97;;;1.67;;
54743;SDS011;40639;53.170;6.728;2022-10-16T14:06:06;5.57;;;1.90;;
54743;SDS011;40639;53.170;6.728;2022-10-16T14:08:37;6.80;;;1.40;;
54743;SDS011;40639;53.170;6.728;2022-10-16T14:11:07;4.82;;;1.30;;
54743;SDS011;40639;53.170;6.728;2022-10-16T14:13:36;5.40;;;1.25;;
54743;SDS011;40639;53.170;6.728;2022-10-16T14:16:05;6.00;;;1.50;;
54743;SDS011;40639;53.170;6.728;2022-10-16T14:18:32;5.85;;;1.45;;
54743;SDS011;40639;53.170;6.728;2022-10-16T14:21:03;5.82;;;1.40;;
54743;SDS011;40639;53.170;6.728;2022-10-16T14:23:30;4.20;;;1.30;;
54743;SDS011;40639;53.170;6.728;2022-10-16T14:28:38;5.47;;;1.10;;
54743;SDS011;40639;53.170;6.728;2022-10-16T14:33:50;5.32;;;1.13;;
54743;SDS011;40639;53.170;6.728;2022-10-16T14:36:17;4.50;;;1.25;;
54743;SDS011;40639;53.170;6.728;2022-10-16T14:38:58;5.47;;;1.17;;
54743;SDS011;40639;53.170;6.728;2022-10-16T14:41:25;6.78;;;1.70;;
54743;SDS011;40639;53.170;6.728;2022-10-16T14:43:55;6.90;;;1.52;;
54743;SDS011;40639;53.170;6.728;2022-10-16T14:46:22;8.75;;;1.55;;
54743;SDS011;40639;53.170;6.728;2022-10-16T14:48:59;5.05;;;1.17;;
54743;SDS011;40639;53.170;6.728;2022-10-16T14:51:26;4.70;;;1.30;;
54743;SDS011;40639;53.170;6.728;2022-10-16T14:53:53;6.80;;;1.52;;
54743;SDS011;40639;53.170;6.728;2022-10-16T14:56:20;5.85;;;1.63;;
54743;SDS011;40639;53.170;6.728;2022-10-16T14:58:47;5.65;;;1.85;;
54743;SDS011;40639;53.170;6.728;2022-10-16T15:01:13;5.28;;;1.60;;
54743;SDS011;40639;53.170;6.728;2022-10-16T15:03:39;6.80;;;1.73;;
54743;SDS011;40639;53.170;6.728;2022-10-16T15:06:12;6.63;;;1.38;;
54743;SDS011;40639;53.170;6.728;2022-10-16T15:08:39;7.85;;;1.58;;
54743;SDS011;40639;53.170;6.728;2022-10-16T15:11:07;4.70;;;1.20;;
54743;SDS011;40639;53.170;6.728;2022-10-16T15:13:35;6.85;;;1.50;;
54743;SDS011;40639;53.170;6.728;2022-10-16T15:16:02;6.00;;;1.73;;
54743;SDS011;40639;53.170;6.728;2022-10-16T15:18:28;7.25;;;1.70;;
54743;SDS011;40639;53.170;6.728;2022-10-16T15:20:54;4.40;;;1.20;;
54743;SDS011;40639;53.170;6.728;2022-10-16T15:23:20;7.18;;;1.73;;
54743;SDS011;40639;53.170;6.728;2022-10-16T15:25:53;9.40;;;2.10;;
54743;SDS011;40639;53.170;6.728;2022-10-16T15:28:20;7.25;;;1.77;;
54743;SDS011;40639;53.170;6.728;2022-10-16T15:30:48;8.50;;;1.60;;
54743;SDS011;40639;53.170;6.728;2022-10-16T15:33:16;7.97;;;1.75;;
54743;SDS011;40639;53.170;6.728;2022-10-16T15:35:43;8.05;;;1.60;;
54743;SDS011;40639;53.170;6.728;2022-10-16T15:38:12;5.65;;;1.60;;
54743;SDS011;40639;53.170;6.728;2022-10-16T15:40:38;9.20;;;1.67;;
54743;SDS011;40639;53.170;6.728;2022-10-16T15:43:05;9.30;;;2.05;;
54743;SDS011;40639;53.170;6.728;2022-10-16T15:45:31;6.90;;;1.60;;
54743;SDS011;40639;53.170;6.728;2022-10-16T15:47:57;9.27;;;2.22;;
54743;SDS011;40639;53.170;6.728;2022-10-16T15:50:24;6.65;;;1.60;;
54743;SDS011;40639;53.170;6.728;2022-10-16T15:52:50;5.07;;;1.55;;
54743;SDS011;40639;53.170;6.728;2022-10-16T15:55:16;5.93;;;1.75;;
54743;SDS011;40639;53.170;6.728;2022-10-16T15:57:44;7.10;;;1.58;;
54743;SDS011;40639;53.170;6.728;2022-10-16T16:00:11;8.38;;;2.00;;
54743;SDS011;40639;53.170;6.728;2022-10-16T16:02:38;7.50;;;1.73;;
54743;SDS011;40639;53.170;6.728;2022-10-16T16:05:05;12.57;;;2.35;;
54743;SDS011;40639;53.170;6.728;2022-10-16T16:07:36;7.13;;;1.73;;
54743;SDS011;40639;53.170;6.728;2022-10-16T16:10:03;8.27;;;1.75;;
54743;SDS011;40639;53.170;6.728;2022-10-16T16:12:30;10.25;;;1.65;;
54743;SDS011;40639;53.170;6.728;2022-10-16T16:14:56;9.75;;;1.90;;
54743;SDS011;40639;53.170;6.728;2022-10-16T16:17:22;12.05;;;2.22;;
54743;SDS011;40639;53.170;6.728;2022-10-16T16:19:49;6.28;;;1.48;;
54743;SDS011;40639;53.170;6.728;2022-10-16T16:22:15;10.48;;;2.17;;
54743;SDS011;40639;53.170;6.728;2022-10-16T16:24:41;7.80;;;1.52;;
54743;SDS011;40639;53.170;6.728;2022-10-16T16:27:08;11.13;;;1.92;;
54743;SDS011;40639;53.170;6.728;2022-10-16T16:29:34;6.90;;;1.60;;
54743;SDS011;40639;53.170;6.728;2022-10-16T16:32:00;7.72;;;1.38;;